sensor_id;sensor_type;location;lat;lon;timestamp;P1;durP1;ratioP1;P2;durP2;ratioP2
11486;SDS011;10510;47.942;9.442;2023-11-21T00:01:29;5.18;;;1.17;;
11486;SDS011;10510;47.942;9.442;2023-11-21T00:03:30;5.45;;;1.15;;
11486;SDS011;10510;47.942;9.442;2023-11-21T00:05:30;4.55;;;1.92;;
11486;SDS011;10510;47.942;9.442;2023-11-21T00:07:31;4.50;;;1.30;;
11486;SDS011;10510;47.942;9.442;2023-11-21T00:09:31;5.85;;;1.23;;
11486;SDS011;10510;47.942;9.442;2023-11-21T00:11:32;6.80;;;1.48;;
11486;SDS011;10510;47.942;9.442;2023-11-21T00:13:33;10.15;;;1.75;;
11486;SDS011;10510;47.942;9.442;2023-11-21T00:15:33;6.10;;;1.30;;
11486;SDS011;10510;47.942;9.442;2023-11-21T00:17:34;5.47;;;0.98;;
11486;SDS011;10510;47.942;9.442;2023-11-21T00:19:34;8.10;;;2.15;;
11486;SDS011;10510;47.942;9.442;2023-11-21T00:21:34;5.35;;;0.98;;
11486;SDS011;10510;47.942;9.442;2023-11-21T00:23:35;6.57;;;1.05;;
11486;SDS011;10510;47.942;9.442;2023-11-21T00:25:35;5.85;;;1.10;;
11486;SDS011;10510;47.942;9.442;2023-11-21T00:27:35;6.63;;;0.95;;
11486;SDS011;10510;47.942;9.442;2023-11-21T00:29:36;8.95;;;1.15;;
11486;SDS011;10510;47.942;9.442;2023-11-21T00:31:36;4.88;;;1.00;;
11486;SDS011;10510;47.942;9.442;2023-11-21T00:33:37;6.28;;;0.80;;
11486;SDS011;10510;47.942;9.442;2023-11-21T00:35:38;2.08;;;0.70;;
11486;SDS011;10510;47.942;9.442;2023-11-21T00:37:38;6.13;;;0.90;;
11486;SDS011;10510;47.942;9.442;2023-11-21T00:39:38;5.60;;;1.95;;
11486;SDS011;10510;47.942;9.442;2023-11-21T00:41:39;5.25;;;1.00;;
11486;SDS011;10510;47.942;9.442;2023-11-21T00:43:40;5.60;;;0.90;;
11486;SDS011;10510;47.942;9.442;2023-11-21T00:45:40;2.78;;;0.75;;
11486;SDS011;10510;47.942;9.442;2023-11-21T00:47:40;3.42;;;1.17;;
11486;SDS011;10510;47.942;9.442;2023-11-21T00:49:41;4.43;;;1.00;;
11486;SDS011;10510;47.942;9.442;2023-11-21T00:51:41;5.30;;;1.00;;
11486;SDS011;10510;47.942;9.442;2023-11-21T00:53:41;7.43;;;1.17;;
11486;SDS011;10510;47.942;9.442;2023-11-21T00:55:42;5.72;;;0.63;;
11486;SDS011;10510;47.942;9.442;2023-11-21T00:57:42;6.28;;;0.93;;
11486;SDS011;10510;47.942;9.442;2023-11-21T00:59:42;2.55;;;1.00;;
11486;SDS011;10510;47.942;9.442;2023-11-21T01:01:43;6.18;;;1.25;;
11486;SDS011;10510;47.942;9.442;2023-11-21T01:03:43;3.80;;;0.80;;
11486;SDS011;10510;47.942;9.442;2023-11-21T01:05:43;4.75;;;0.90;;
11486;SDS011;10510;47.942;9.442;2023-11-21T01:07:44;4.50;;;0.70;;
11486;SDS011;10510;47.942;9.442;2023-11-21T01:09:44;4.05;;;1.38;;
11486;SDS011;10510;47.942;9.442;2023-11-21T01:11:44;5.72;;;0.98;;
11486;SDS011;10510;47.942;9.442;2023-11-21T01:13:45;6.88;;;0.82;;
11486;SDS011;10510;47.942;9.442;2023-11-21T01:15:45;3.72;;;0.90;;
11486;SDS011;10510;47.942;9.442;2023-11-21T01:17:47;2.38;;;1.10;;
11486;SDS011;10510;47.942;9.442;2023-11-21T01:19:47;9.00;;;1.42;;
11486;SDS011;10510;47.942;9.442;2023-11-21T01:21:47;2.35;;;0.95;;
11486;SDS011;10510;47.942;9.442;2023-11-21T01:23:47;7.93;;;1.23;;
11486;SDS011;10510;47.942;9.442;2023-11-21T01:25:48;5.97;;;1.38;;
11486;SDS011;10510;47.942;9.442;2023-11-21T01:27:48;9.02;;;1.30;;
11486;SDS011;10510;47.942;9.442;2023-11-21T01:29:49;4.88;;;1.27;;
11486;SDS011;10510;47.942;9.442;2023-11-21T01:31:49;4.40;;;1.13;;
11486;SDS011;10510;47.942;9.442;2023-11-21T01:33:49;9.35;;;1.00;;
11486;SDS011;10510;47.942;9.442;2023-11-21T01:35:49;4.00;;;1.10;;
11486;SDS011;10510;47.942;9.442;2023-11-21T01:37:50;2.03;;;0.88;;
11486;SDS011;10510;47.942;9.442;2023-11-21T01:39:50;1.40;;;0.73;;
11486;SDS011;10510;47.942;9.442;2023-11-21T01:41:51;7.03;;;1.30;;
11486;SDS011;10510;47.942;9.442;2023-11-21T01:43:52;5.35;;;0.90;;
11486;SDS011;10510;47.942;9.442;2023-11-21T01:45:54;2.08;;;0.68;;
11486;SDS011;10510;47.942;9.442;2023-11-21T01:47:57;2.90;;;1.00;;
11486;SDS011;10510;47.942;9.442;2023-11-21T01:50:00;7.75;;;1.00;;
11486;SDS011;10510;47.942;9.442;2023-11-21T01:52:04;6.35;;;0.93;;
11486;SDS011;10510;47.942;9.442;2023-11-21T01:54:06;5.85;;;0.73;;
11486;SDS011;10510;47.942;9.442;2023-11-21T01:56:06;4.03;;;0.93;;
11486;SDS011;10510;47.942;9.442;2023-11-21T01:58:08;9.43;;;0.90;;
11486;SDS011;10510;47.942;9.442;2023-11-21T02:00:09;3.00;;;0.93;;
11486;SDS011;10510;47.942;9.442;2023-11-21T02:02:15;2.15;;;1.50;;
11486;SDS011;10510;47.942;9.442;2023-11-21T02:04:16;4.43;;;0.85;;
11486;SDS011;10510;47.942;9.442;2023-11-21T02:06:17;4.35;;;1.40;;
11486;SDS011;10510;47.942;9.442;2023-11-21T02:08:18;6.88;;;1.17;;
11486;SDS011;10510;47.942;9.442;2023-11-21T02:10:19;8.75;;;1.00;;
11486;SDS011;10510;47.942;9.442;2023-11-21T02:12:22;3.92;;;0.90;;
11486;SDS011;10510;47.942;9.442;2023-11-21T02:14:26;7.90;;;1.25;;
11486;SDS011;10510;47.942;9.442;2023-11-21T02:16:27;4.13;;;1.08;;
11486;SDS011;10510;47.942;9.442;2023-11-21T02:18:31;10.18;;;1.30;;
11486;SDS011;10510;47.942;9.442;2023-11-21T02:20:31;5.70;;;0.95;;
11486;SDS011;10510;47.942;9.442;2023-11-21T02:22:34;3.88;;;1.00;;
11486;SDS011;10510;47.942;9.442;2023-11-21T02:24:41;8.60;;;2.08;;
11486;SDS011;10510;47.942;9.442;2023-11-21T02:26:42;3.95;;;1.30;;
11486;SDS011;10510;47.942;9.442;2023-11-21T02:28:42;7.60;;;1.42;;
11486;SDS011;10510;47.942;9.442;2023-11-21T02:30:42;3.35;;;1.02;;
11486;SDS011;10510;47.942;9.442;2023-11-21T02:32:43;6.72;;;1.13;;
11486;SDS011;10510;47.942;9.442;2023-11-21T02:34:43;5.07;;;1.27;;
11486;SDS011;10510;47.942;9.442;2023-11-21T02:36:44;5.97;;;2.42;;
11486;SDS011;10510;47.942;9.442;2023-11-21T02:38:44;6.45;;;1.13;;
11486;SDS011;10510;47.942;9.442;2023-11-21T02:40:45;9.45;;;1.70;;
11486;SDS011;10510;47.942;9.442;2023-11-21T02:42:49;7.55;;;2.45;;
11486;SDS011;10510;47.942;9.442;2023-11-21T02:44:52;5.63;;;1.08;;
11486;SDS011;10510;47.942;9.442;2023-11-21T02:46:52;7.22;;;1.40;;
11486;SDS011;10510;47.942;9.442;2023-11-21T02:48:52;6.88;;;1.20;;
11486;SDS011;10510;47.942;9.442;2023-11-21T02:50:56;3.65;;;1.30;;
11486;SDS011;10510;47.942;9.442;2023-11-21T02:52:56;5.45;;;1.45;;
11486;SDS011;10510;47.942;9.442;2023-11-21T02:54:57;8.23;;;1.20;;
11486;SDS011;10510;47.942;9.442;2023-11-21T02:56:58;3.78;;;0.98;;
11486;SDS011;10510;47.942;9.442;2023-11-21T02:58:59;6.32;;;1.90;;
11486;SDS011;10510;47.942;9.442;2023-11-21T03:01:00;7.55;;;1.00;;
11486;SDS011;10510;47.942;9.442;2023-11-21T03:03:00;3.63;;;0.88;;
11486;SDS011;10510;47.942;9.442;2023-11-21T03:05:01;6.53;;;1.38;;
11486;SDS011;10510;47.942;9.442;2023-11-21T03:07:01;4.32;;;1.13;;
11486;SDS011;10510;47.942;9.442;2023-11-21T03:09:01;4.32;;;1.13;;
11486;SDS011;10510;47.942;9.442;2023-11-21T03:11:02;1.55;;;0.65;;
11486;SDS011;10510;47.942;9.442;2023-11-21T03:13:03;3.40;;;0.50;;
11486;SDS011;10510;47.942;9.442;2023-11-21T03:15:07;2.53;;;0.68;;
11486;SDS011;10510;47.942;9.442;2023-11-21T03:17:08;4.78;;;0.90;;
11486;SDS011;10510;47.942;9.442;2023-11-21T03:19:08;2.00;;;0.65;;
11486;SDS011;10510;47.942;9.442;2023-11-21T03:21:09;1.65;;;0.60;;
11486;SDS011;10510;47.942;9.442;2023-11-21T03:23:09;3.17;;;0.90;;
11486;SDS011;10510;47.942;9.442;2023-11-21T03:25:09;1.35;;;0.80;;
11486;SDS011;10510;47.942;9.442;2023-11-21T03:27:11;3.90;;;0.93;;
11486;SDS011;10510;47.942;9.442;2023-11-21T03:29:12;2.25;;;0.75;;
11486;SDS011;10510;47.942;9.442;2023-11-21T03:31:12;2.75;;;0.68;;
11486;SDS011;10510;47.942;9.442;2023-11-21T03:33:12;4.05;;;0.77;;
11486;SDS011;10510;47.942;9.442;2023-11-21T03:35:12;3.30;;;1.02;;
11486;SDS011;10510;47.942;9.442;2023-11-21T03:37:13;4.85;;;0.60;;
11486;SDS011;10510;47.942;9.442;2023-11-21T03:39:13;2.13;;;0.60;;
11486;SDS011;10510;47.942;9.442;2023-11-21T03:41:13;1.17;;;0.70;;
11486;SDS011;10510;47.942;9.442;2023-11-21T03:43:14;4.13;;;0.80;;
11486;SDS011;10510;47.942;9.442;2023-11-21T03:45:15;3.90;;;0.60;;
11486;SDS011;10510;47.942;9.442;2023-11-21T03:47:15;1.85;;;0.60;;
11486;SDS011;10510;47.942;9.442;2023-11-21T03:49:15;1.90;;;0.70;;
11486;SDS011;10510;47.942;9.442;2023-11-21T03:51:16;1.33;;;0.60;;
11486;SDS011;10510;47.942;9.442;2023-11-21T03:53:16;1.27;;;0.40;;
11486;SDS011;10510;47.942;9.442;2023-11-21T03:55:16;4.18;;;1.50;;
11486;SDS011;10510;47.942;9.442;2023-11-21T03:57:16;3.85;;;0.60;;
11486;SDS011;10510;47.942;9.442;2023-11-21T03:59:17;1.65;;;0.50;;
11486;SDS011;10510;47.942;9.442;2023-11-21T04:01:21;1.23;;;0.50;;
11486;SDS011;10510;47.942;9.442;2023-11-21T04:03:22;1.35;;;0.63;;
11486;SDS011;10510;47.942;9.442;2023-11-21T04:05:22;1.63;;;1.08;;
11486;SDS011;10510;47.942;9.442;2023-11-21T04:07:23;2.92;;;0.60;;
11486;SDS011;10510;47.942;9.442;2023-11-21T04:09:23;5.13;;;1.02;;
11486;SDS011;10510;47.942;9.442;2023-11-21T04:11:25;2.55;;;0.52;;
11486;SDS011;10510;47.942;9.442;2023-11-21T04:13:25;1.42;;;0.60;;
11486;SDS011;10510;47.942;9.442;2023-11-21T04:15:25;3.38;;;0.70;;
11486;SDS011;10510;47.942;9.442;2023-11-21T04:17:26;2.00;;;0.47;;
11486;SDS011;10510;47.942;9.442;2023-11-21T04:19:26;1.73;;;0.60;;
11486;SDS011;10510;47.942;9.442;2023-11-21T04:21:26;2.65;;;0.63;;
11486;SDS011;10510;47.942;9.442;2023-11-21T04:23:28;4.22;;;0.98;;
11486;SDS011;10510;47.942;9.442;2023-11-21T04:25:29;1.25;;;0.77;;
11486;SDS011;10510;47.942;9.442;2023-11-21T04:27:29;2.53;;;0.77;;
11486;SDS011;10510;47.942;9.442;2023-11-21T04:29:30;2.42;;;0.90;;
11486;SDS011;10510;47.942;9.442;2023-11-21T04:31:30;3.28;;;1.15;;
11486;SDS011;10510;47.942;9.442;2023-11-21T04:33:30;2.28;;;1.00;;
11486;SDS011;10510;47.942;9.442;2023-11-21T04:35:31;5.57;;;1.15;;
11486;SDS011;10510;47.942;9.442;2023-11-21T04:37:31;3.53;;;0.70;;
11486;SDS011;10510;47.942;9.442;2023-11-21T04:39:32;4.15;;;0.80;;
11486;SDS011;10510;47.942;9.442;2023-11-21T04:41:32;3.67;;;1.02;;
11486;SDS011;10510;47.942;9.442;2023-11-21T04:43:32;1.30;;;0.60;;
11486;SDS011;10510;47.942;9.442;2023-11-21T04:45:33;3.13;;;1.00;;
11486;SDS011;10510;47.942;9.442;2023-11-21T04:47:33;6.60;;;1.08;;
11486;SDS011;10510;47.942;9.442;2023-11-21T04:49:33;3.05;;;0.85;;
11486;SDS011;10510;47.942;9.442;2023-11-21T04:51:33;3.60;;;1.38;;
11486;SDS011;10510;47.942;9.442;2023-11-21T04:53:34;5.13;;;1.30;;
11486;SDS011;10510;47.942;9.442;2023-11-21T04:55:34;2.15;;;0.70;;
11486;SDS011;10510;47.942;9.442;2023-11-21T04:57:38;6.57;;;0.95;;
11486;SDS011;10510;47.942;9.442;2023-11-21T04:59:40;2.78;;;0.95;;
11486;SDS011;10510;47.942;9.442;2023-11-21T05:01:41;4.93;;;1.13;;
11486;SDS011;10510;47.942;9.442;2023-11-21T05:03:41;1.55;;;0.80;;
11486;SDS011;10510;47.942;9.442;2023-11-21T05:05:41;4.75;;;0.90;;
11486;SDS011;10510;47.942;9.442;2023-11-21T05:07:42;1.63;;;1.00;;
11486;SDS011;10510;47.942;9.442;2023-11-21T05:09:42;7.60;;;1.38;;
11486;SDS011;10510;47.942;9.442;2023-11-21T05:11:45;4.32;;;1.73;;
11486;SDS011;10510;47.942;9.442;2023-11-21T05:13:46;3.72;;;1.20;;
11486;SDS011;10510;47.942;9.442;2023-11-21T05:15:46;5.15;;;1.02;;
11486;SDS011;10510;47.942;9.442;2023-11-21T05:17:46;6.55;;;1.27;;
11486;SDS011;10510;47.942;9.442;2023-11-21T05:19:49;1.90;;;1.00;;
11486;SDS011;10510;47.942;9.442;2023-11-21T05:21:49;6.00;;;1.17;;
11486;SDS011;10510;47.942;9.442;2023-11-21T05:23:50;3.95;;;1.17;;
11486;SDS011;10510;47.942;9.442;2023-11-21T05:25:50;5.80;;;0.90;;
11486;SDS011;10510;47.942;9.442;2023-11-21T05:27:51;3.00;;;1.00;;
11486;SDS011;10510;47.942;9.442;2023-11-21T05:29:51;6.03;;;1.30;;
11486;SDS011;10510;47.942;9.442;2023-11-21T05:31:51;1.90;;;1.00;;
11486;SDS011;10510;47.942;9.442;2023-11-21T05:33:53;3.38;;;1.20;;
11486;SDS011;10510;47.942;9.442;2023-11-21T05:35:53;2.53;;;1.25;;
11486;SDS011;10510;47.942;9.442;2023-11-21T05:37:53;7.40;;;1.00;;
11486;SDS011;10510;47.942;9.442;2023-11-21T05:39:54;0.85;;;0.68;;
11486;SDS011;10510;47.942;9.442;2023-11-21T05:41:56;2.67;;;0.88;;
11486;SDS011;10510;47.942;9.442;2023-11-21T05:43:57;3.38;;;1.02;;
11486;SDS011;10510;47.942;9.442;2023-11-21T05:45:57;8.02;;;1.20;;
11486;SDS011;10510;47.942;9.442;2023-11-21T05:47:58;3.33;;;0.75;;
11486;SDS011;10510;47.942;9.442;2023-11-21T05:49:58;3.47;;;0.88;;
11486;SDS011;10510;47.942;9.442;2023-11-21T05:52:00;8.50;;;1.27;;
11486;SDS011;10510;47.942;9.442;2023-11-21T05:54:00;5.05;;;1.75;;
11486;SDS011;10510;47.942;9.442;2023-11-21T05:56:00;6.82;;;1.20;;
11486;SDS011;10510;47.942;9.442;2023-11-21T05:58:00;8.60;;;4.00;;
11486;SDS011;10510;47.942;9.442;2023-11-21T06:00:02;7.05;;;1.85;;
11486;SDS011;10510;47.942;9.442;2023-11-21T06:02:28;6.72;;;1.15;;
11486;SDS011;10510;47.942;9.442;2023-11-21T06:04:28;5.63;;;1.10;;
11486;SDS011;10510;47.942;9.442;2023-11-21T06:06:29;4.68;;;1.42;;
11486;SDS011;10510;47.942;9.442;2023-11-21T06:08:29;2.90;;;1.10;;
11486;SDS011;10510;47.942;9.442;2023-11-21T06:10:29;5.43;;;1.30;;
11486;SDS011;10510;47.942;9.442;2023-11-21T06:12:29;4.72;;;1.92;;
11486;SDS011;10510;47.942;9.442;2023-11-21T06:14:31;3.72;;;2.03;;
11486;SDS011;10510;47.942;9.442;2023-11-21T06:16:33;5.65;;;0.95;;
11486;SDS011;10510;47.942;9.442;2023-11-21T06:18:33;4.50;;;2.08;;
11486;SDS011;10510;47.942;9.442;2023-11-21T06:20:35;2.95;;;1.10;;
11486;SDS011;10510;47.942;9.442;2023-11-21T06:22:37;2.38;;;1.30;;
11486;SDS011;10510;47.942;9.442;2023-11-21T06:24:38;8.93;;;1.70;;
11486;SDS011;10510;47.942;9.442;2023-11-21T06:26:38;5.55;;;2.17;;
11486;SDS011;10510;47.942;9.442;2023-11-21T06:28:38;3.67;;;1.30;;
11486;SDS011;10510;47.942;9.442;2023-11-21T06:30:39;5.57;;;1.77;;
11486;SDS011;10510;47.942;9.442;2023-11-21T06:32:39;4.68;;;1.55;;
11486;SDS011;10510;47.942;9.442;2023-11-21T06:34:40;3.47;;;1.27;;
11486;SDS011;10510;47.942;9.442;2023-11-21T06:36:40;2.28;;;1.10;;
11486;SDS011;10510;47.942;9.442;2023-11-21T06:38:40;7.07;;;1.63;;
11486;SDS011;10510;47.942;9.442;2023-11-21T06:40:40;7.78;;;3.35;;
11486;SDS011;10510;47.942;9.442;2023-11-21T06:42:41;6.10;;;1.75;;
11486;SDS011;10510;47.942;9.442;2023-11-21T06:44:41;11.63;;;1.92;;
11486;SDS011;10510;47.942;9.442;2023-11-21T06:46:41;5.30;;;1.35;;
11486;SDS011;10510;47.942;9.442;2023-11-21T06:48:42;5.63;;;1.30;;
11486;SDS011;10510;47.942;9.442;2023-11-21T06:50:43;5.55;;;2.63;;
11486;SDS011;10510;47.942;9.442;2023-11-21T06:52:43;7.15;;;2.10;;
11486;SDS011;10510;47.942;9.442;2023-11-21T06:54:43;4.85;;;2.35;;
11486;SDS011;10510;47.942;9.442;2023-11-21T06:56:43;6.15;;;1.83;;
11486;SDS011;10510;47.942;9.442;2023-11-21T06:58:45;5.65;;;2.53;;
11486;SDS011;10510;47.942;9.442;2023-11-21T07:00:46;4.93;;;2.20;;
11486;SDS011;10510;47.942;9.442;2023-11-21T07:02:46;3.80;;;2.30;;
11486;SDS011;10510;47.942;9.442;2023-11-21T07:04:47;8.77;;;2.45;;
11486;SDS011;10510;47.942;9.442;2023-11-21T07:06:47;6.93;;;3.25;;
11486;SDS011;10510;47.942;9.442;2023-11-21T07:08:47;3.22;;;2.40;;
11486;SDS011;10510;47.942;9.442;2023-11-21T07:10:48;5.10;;;1.83;;
11486;SDS011;10510;47.942;9.442;2023-11-21T07:12:49;5.00;;;2.00;;
11486;SDS011;10510;47.942;9.442;2023-11-21T07:14:51;4.28;;;1.92;;
11486;SDS011;10510;47.942;9.442;2023-11-21T07:16:51;4.40;;;1.60;;
11486;SDS011;10510;47.942;9.442;2023-11-21T07:18:52;4.95;;;1.52;;
11486;SDS011;10510;47.942;9.442;2023-11-21T07:20:54;3.88;;;1.58;;
11486;SDS011;10510;47.942;9.442;2023-11-21T07:22:55;10.55;;;2.28;;
11486;SDS011;10510;47.942;9.442;2023-11-21T07:24:56;6.85;;;1.90;;
11486;SDS011;10510;47.942;9.442;2023-11-21T07:26:58;6.03;;;1.98;;
11486;SDS011;10510;47.942;9.442;2023-11-21T07:28:59;9.20;;;1.70;;
11486;SDS011;10510;47.942;9.442;2023-11-21T07:31:00;2.83;;;1.80;;
11486;SDS011;10510;47.942;9.442;2023-11-21T07:33:00;10.70;;;2.45;;
11486;SDS011;10510;47.942;9.442;2023-11-21T07:35:01;6.70;;;2.30;;
11486;SDS011;10510;47.942;9.442;2023-11-21T07:37:01;7.22;;;2.10;;
11486;SDS011;10510;47.942;9.442;2023-11-21T07:39:02;5.40;;;1.98;;
11486;SDS011;10510;47.942;9.442;2023-11-21T07:41:03;8.48;;;2.65;;
11486;SDS011;10510;47.942;9.442;2023-11-21T07:43:03;5.97;;;2.58;;
11486;SDS011;10510;47.942;9.442;2023-11-21T07:45:05;10.23;;;2.78;;
11486;SDS011;10510;47.942;9.442;2023-11-21T07:47:07;6.68;;;2.33;;
11486;SDS011;10510;47.942;9.442;2023-11-21T07:49:07;6.93;;;2.22;;
11486;SDS011;10510;47.942;9.442;2023-11-21T07:51:07;4.85;;;2.00;;
11486;SDS011;10510;47.942;9.442;2023-11-21T07:53:08;4.78;;;2.13;;
11486;SDS011;10510;47.942;9.442;2023-11-21T07:55:09;4.03;;;1.92;;
11486;SDS011;10510;47.942;9.442;2023-11-21T07:57:10;3.60;;;1.90;;
11486;SDS011;10510;47.942;9.442;2023-11-21T07:59:13;4.63;;;2.00;;
11486;SDS011;10510;47.942;9.442;2023-11-21T08:01:14;6.28;;;2.22;;
11486;SDS011;10510;47.942;9.442;2023-11-21T08:03:14;7.22;;;2.08;;
11486;SDS011;10510;47.942;9.442;2023-11-21T08:05:14;4.20;;;1.90;;
11486;SDS011;10510;47.942;9.442;2023-11-21T08:07:16;2.28;;;1.55;;
11486;SDS011;10510;47.942;9.442;2023-11-21T08:09:17;7.50;;;2.05;;
11486;SDS011;10510;47.942;9.442;2023-11-21T08:11:17;2.80;;;1.60;;
11486;SDS011;10510;47.942;9.442;2023-11-21T08:13:19;3.78;;;2.25;;
11486;SDS011;10510;47.942;9.442;2023-11-21T08:15:19;6.63;;;1.95;;
11486;SDS011;10510;47.942;9.442;2023-11-21T08:17:20;9.70;;;2.03;;
11486;SDS011;10510;47.942;9.442;2023-11-21T08:19:20;4.70;;;1.80;;
11486;SDS011;10510;47.942;9.442;2023-11-21T08:21:21;9.45;;;2.90;;
11486;SDS011;10510;47.942;9.442;2023-11-21T08:23:23;4.25;;;1.80;;
11486;SDS011;10510;47.942;9.442;2023-11-21T08:25:26;4.60;;;1.63;;
11486;SDS011;10510;47.942;9.442;2023-11-21T08:27:27;7.47;;;1.90;;
11486;SDS011;10510;47.942;9.442;2023-11-21T08:29:27;3.33;;;2.42;;
11486;SDS011;10510;47.942;9.442;2023-11-21T08:31:27;9.00;;;2.13;;
11486;SDS011;10510;47.942;9.442;2023-11-21T08:33:28;11.38;;;2.20;;
11486;SDS011;10510;47.942;9.442;2023-11-21T08:35:29;3.92;;;1.80;;
11486;SDS011;10510;47.942;9.442;2023-11-21T08:37:30;9.77;;;1.77;;
11486;SDS011;10510;47.942;9.442;2023-11-21T08:39:30;3.05;;;1.80;;
11486;SDS011;10510;47.942;9.442;2023-11-21T08:41:30;5.45;;;2.20;;
11486;SDS011;10510;47.942;9.442;2023-11-21T08:43:30;4.60;;;1.90;;
11486;SDS011;10510;47.942;9.442;2023-11-21T08:45:31;8.55;;;2.22;;
11486;SDS011;10510;47.942;9.442;2023-11-21T08:47:34;5.47;;;2.10;;
11486;SDS011;10510;47.942;9.442;2023-11-21T08:49:36;4.38;;;2.10;;
11486;SDS011;10510;47.942;9.442;2023-11-21T08:51:38;5.18;;;1.60;;
11486;SDS011;10510;47.942;9.442;2023-11-21T08:53:39;2.40;;;1.60;;
11486;SDS011;10510;47.942;9.442;2023-11-21T08:55:39;3.03;;;1.67;;
11486;SDS011;10510;47.942;9.442;2023-11-21T08:57:39;3.63;;;1.60;;
11486;SDS011;10510;47.942;9.442;2023-11-21T08:59:41;3.17;;;1.85;;
11486;SDS011;10510;47.942;9.442;2023-11-21T09:01:41;4.13;;;1.73;;
11486;SDS011;10510;47.942;9.442;2023-11-21T09:03:42;2.05;;;1.50;;
11486;SDS011;10510;47.942;9.442;2023-11-21T09:05:43;3.50;;;1.50;;
11486;SDS011;10510;47.942;9.442;2023-11-21T09:07:44;10.68;;;2.60;;
11486;SDS011;10510;47.942;9.442;2023-11-21T09:09:46;4.30;;;1.73;;
11486;SDS011;10510;47.942;9.442;2023-11-21T09:11:47;5.97;;;1.50;;
11486;SDS011;10510;47.942;9.442;2023-11-21T09:13:49;3.63;;;1.60;;
11486;SDS011;10510;47.942;9.442;2023-11-21T09:15:51;2.65;;;1.30;;
11486;SDS011;10510;47.942;9.442;2023-11-21T09:17:51;3.90;;;1.88;;
11486;SDS011;10510;47.942;9.442;2023-11-21T09:19:51;2.88;;;1.60;;
11486;SDS011;10510;47.942;9.442;2023-11-21T09:21:51;2.95;;;1.92;;
11486;SDS011;10510;47.942;9.442;2023-11-21T09:23:52;7.32;;;1.88;;
11486;SDS011;10510;47.942;9.442;2023-11-21T09:25:52;3.00;;;1.70;;
11486;SDS011;10510;47.942;9.442;2023-11-21T09:27:56;3.30;;;1.60;;
11486;SDS011;10510;47.942;9.442;2023-11-21T09:29:57;4.57;;;1.92;;
11486;SDS011;10510;47.942;9.442;2023-11-21T09:31:58;5.28;;;1.77;;
11486;SDS011;10510;47.942;9.442;2023-11-21T09:33:59;2.47;;;1.55;;
11486;SDS011;10510;47.942;9.442;2023-11-21T09:35:59;3.80;;;1.63;;
11486;SDS011;10510;47.942;9.442;2023-11-21T09:37:59;7.03;;;1.55;;
11486;SDS011;10510;47.942;9.442;2023-11-21T09:40:01;4.78;;;1.48;;
11486;SDS011;10510;47.942;9.442;2023-11-21T09:42:10;5.50;;;1.70;;
11486;SDS011;10510;47.942;9.442;2023-11-21T09:44:13;3.03;;;1.60;;
11486;SDS011;10510;47.942;9.442;2023-11-21T09:46:16;4.82;;;1.58;;
11486;SDS011;10510;47.942;9.442;2023-11-21T09:48:21;2.80;;;1.80;;
11486;SDS011;10510;47.942;9.442;2023-11-21T09:50:25;4.25;;;1.55;;
11486;SDS011;10510;47.942;9.442;2023-11-21T09:52:28;9.65;;;2.13;;
11486;SDS011;10510;47.942;9.442;2023-11-21T09:54:29;7.20;;;2.92;;
11486;SDS011;10510;47.942;9.442;2023-11-21T09:56:32;7.10;;;2.67;;
11486;SDS011;10510;47.942;9.442;2023-11-21T09:58:32;5.28;;;1.65;;
11486;SDS011;10510;47.942;9.442;2023-11-21T10:00:34;2.78;;;2.08;;
11486;SDS011;10510;47.942;9.442;2023-11-21T10:02:34;6.53;;;2.53;;
11486;SDS011;10510;47.942;9.442;2023-11-21T10:04:36;2.67;;;1.17;;
11486;SDS011;10510;47.942;9.442;2023-11-21T10:06:36;3.33;;;1.27;;
11486;SDS011;10510;47.942;9.442;2023-11-21T10:08:38;6.07;;;1.45;;
11486;SDS011;10510;47.942;9.442;2023-11-21T10:10:45;4.53;;;1.60;;
11486;SDS011;10510;47.942;9.442;2023-11-21T10:12:50;4.43;;;1.48;;
11486;SDS011;10510;47.942;9.442;2023-11-21T10:14:55;3.33;;;2.13;;
11486;SDS011;10510;47.942;9.442;2023-11-21T10:17:00;3.10;;;2.00;;
11486;SDS011;10510;47.942;9.442;2023-11-21T10:19:02;3.25;;;2.05;;
11486;SDS011;10510;47.942;9.442;2023-11-21T10:21:04;3.50;;;1.80;;
11486;SDS011;10510;47.942;9.442;2023-11-21T10:23:06;3.65;;;1.77;;
11486;SDS011;10510;47.942;9.442;2023-11-21T10:25:10;3.03;;;1.92;;
11486;SDS011;10510;47.942;9.442;2023-11-21T10:27:11;8.27;;;1.75;;
11486;SDS011;10510;47.942;9.442;2023-11-21T10:29:11;4.03;;;1.40;;
11486;SDS011;10510;47.942;9.442;2023-11-21T10:31:16;2.40;;;1.33;;
11486;SDS011;10510;47.942;9.442;2023-11-21T10:33:16;3.53;;;1.45;;
11486;SDS011;10510;47.942;9.442;2023-11-21T10:35:17;0.88;;;0.75;;
11486;SDS011;10510;47.942;9.442;2023-11-21T10:37:17;0.98;;;0.60;;
11486;SDS011;10510;47.942;9.442;2023-11-21T10:39:18;5.65;;;2.92;;
11486;SDS011;10510;47.942;9.442;2023-11-21T10:41:20;2.88;;;0.70;;
11486;SDS011;10510;47.942;9.442;2023-11-21T10:43:20;1.33;;;0.70;;
11486;SDS011;10510;47.942;9.442;2023-11-21T10:45:24;9.27;;;0.98;;
11486;SDS011;10510;47.942;9.442;2023-11-21T10:47:26;2.30;;;0.90;;
11486;SDS011;10510;47.942;9.442;2023-11-21T10:49:27;1.02;;;0.75;;
11486;SDS011;10510;47.942;9.442;2023-11-21T10:51:27;2.58;;;0.70;;
11486;SDS011;10510;47.942;9.442;2023-11-21T10:53:28;0.75;;;0.57;;
11486;SDS011;10510;47.942;9.442;2023-11-21T10:55:29;1.60;;;0.80;;
11486;SDS011;10510;47.942;9.442;2023-11-21T10:57:31;1.42;;;1.10;;
11486;SDS011;10510;47.942;9.442;2023-11-21T10:59:32;2.70;;;1.38;;
11486;SDS011;10510;47.942;9.442;2023-11-21T11:01:32;1.95;;;1.42;;
11486;SDS011;10510;47.942;9.442;2023-11-21T11:03:32;4.00;;;1.98;;
11486;SDS011;10510;47.942;9.442;2023-11-21T11:05:36;3.28;;;2.20;;
11486;SDS011;10510;47.942;9.442;2023-11-21T11:07:36;2.80;;;1.90;;
11486;SDS011;10510;47.942;9.442;2023-11-21T11:09:38;3.08;;;1.85;;
11486;SDS011;10510;47.942;9.442;2023-11-21T11:11:39;3.22;;;1.75;;
11486;SDS011;10510;47.942;9.442;2023-11-21T11:13:44;4.82;;;2.20;;
11486;SDS011;10510;47.942;9.442;2023-11-21T11:15:48;3.90;;;1.92;;
11486;SDS011;10510;47.942;9.442;2023-11-21T11:17:49;9.27;;;2.10;;
11486;SDS011;10510;47.942;9.442;2023-11-21T11:19:50;3.78;;;1.92;;
11486;SDS011;10510;47.942;9.442;2023-11-21T11:24:08;3.72;;;2.08;;
11486;SDS011;10510;47.942;9.442;2023-11-21T11:29:01;3.78;;;2.00;;
11486;SDS011;10510;47.942;9.442;2023-11-21T11:31:33;7.95;;;5.43;;
11486;SDS011;10510;47.942;9.442;2023-11-21T11:33:55;4.97;;;2.35;;
11486;SDS011;10510;47.942;9.442;2023-11-21T11:36:03;3.58;;;1.38;;
11486;SDS011;10510;47.942;9.442;2023-11-21T11:38:07;1.25;;;1.15;;
11486;SDS011;10510;47.942;9.442;2023-11-21T11:40:08;3.47;;;1.27;;
11486;SDS011;10510;47.942;9.442;2023-11-21T11:42:12;3.78;;;1.30;;
11486;SDS011;10510;47.942;9.442;2023-11-21T11:44:46;1.33;;;0.80;;
11486;SDS011;10510;47.942;9.442;2023-11-21T11:46:51;2.20;;;1.13;;
11486;SDS011;10510;47.942;9.442;2023-11-21T11:49:02;2.45;;;1.08;;
11486;SDS011;10510;47.942;9.442;2023-11-21T11:51:04;1.10;;;1.00;;
11486;SDS011;10510;47.942;9.442;2023-11-21T11:53:12;1.52;;;0.80;;
11486;SDS011;10510;47.942;9.442;2023-11-21T11:55:14;1.75;;;1.00;;
11486;SDS011;10510;47.942;9.442;2023-11-21T11:57:21;1.98;;;0.60;;
11486;SDS011;10510;47.942;9.442;2023-11-21T11:59:24;1.50;;;0.60;;
11486;SDS011;10510;47.942;9.442;2023-11-21T12:01:26;2.55;;;0.80;;
11486;SDS011;10510;47.942;9.442;2023-11-21T12:03:27;2.17;;;0.80;;
11486;SDS011;10510;47.942;9.442;2023-11-21T12:05:27;2.58;;;0.88;;
11486;SDS011;10510;47.942;9.442;2023-11-21T12:07:38;0.80;;;0.50;;
11486;SDS011;10510;47.942;9.442;2023-11-21T12:09:49;3.25;;;1.15;;
11486;SDS011;10510;47.942;9.442;2023-11-21T12:11:50;0.77;;;0.40;;
11486;SDS011;10510;47.942;9.442;2023-11-21T12:13:50;1.05;;;0.50;;
11486;SDS011;10510;47.942;9.442;2023-11-21T12:15:53;1.83;;;0.60;;
11486;SDS011;10510;47.942;9.442;2023-11-21T12:17:54;1.10;;;0.85;;